sensor_id;sensor_type;location;lat;lon;timestamp;temperature;humidity
51615;DHT22;37695;52.960;6.188;2023-03-16T00:01:58;3.60;99.90
51615;DHT22;37695;52.960;6.188;2023-03-16T00:04:24;3.70;99.90
51615;DHT22;37695;52.960;6.188;2023-03-16T00:06:49;3.70;99.90
51615;DHT22;37695;52.960;6.188;2023-03-16T00:09:15;3.70;99.90
51615;DHT22;37695;52.960;6.188;2023-03-16T00:11:41;3.80;99.90
51615;DHT22;37695;52.960;6.188;2023-03-16T00:14:07;3.90;99.90
51615;DHT22;37695;52.960;6.188;2023-03-16T00:16:33;3.90;99.90
51615;DHT22;37695;52.960;6.188;2023-03-16T00:19:00;3.90;99.90
51615;DHT22;37695;52.960;6.188;2023-03-16T00:21:28;3.90;99.90
51615;DHT22;37695;52.960;6.188;2023-03-16T00:23:57;3.90;99.90
51615;DHT22;37695;52.960;6.188;2023-03-16T00:26:23;3.90;99.90
51615;DHT22;37695;52.960;6.188;2023-03-16T00:28:48;3.90;99.90
51615;DHT22;37695;52.960;6.188;2023-03-16T00:31:14;3.90;99.90
51615;DHT22;37695;52.960;6.188;2023-03-16T00:33:40;3.90;99.90
51615;DHT22;37695;52.960;6.188;2023-03-16T00:36:07;3.90;99.90
51615;DHT22;37695;52.960;6.188;2023-03-16T00:38:39;4.00;99.90
51615;DHT22;37695;52.960;6.188;2023-03-16T00:41:09;4.00;99.90
51615;DHT22;37695;52.960;6.188;2023-03-16T00:43:36;4.00;99.90
51615;DHT22;37695;52.960;6.188;2023-03-16T00:46:11;4.00;99.90
51615;DHT22;37695;52.960;6.188;2023-03-16T00:48:40;4.00;99.90
51615;DHT22;37695;52.960;6.188;2023-03-16T00:51:08;4.00;99.90
51615;DHT22;37695;52.960;6.188;2023-03-16T00:53:35;4.00;99.90
51615;DHT22;37695;52.960;6.188;2023-03-16T00:56:02;4.00;99.90
51615;DHT22;37695;52.960;6.188;2023-03-16T00:58:29;4.00;99.90
51615;DHT22;37695;52.960;6.188;2023-03-16T01:01:00;4.00;99.90
51615;DHT22;37695;52.960;6.188;2023-03-16T01:03:26;4.00;99.90
51615;DHT22;37695;52.960;6.188;2023-03-16T01:05:52;4.00;99.90
51615;DHT22;37695;52.960;6.188;2023-03-16T01:08:18;4.00;99.90
51615;DHT22;37695;52.960;6.188;2023-03-16T01:10:43;3.90;99.90
51615;DHT22;37695;52.960;6.188;2023-03-16T01:13:09;3.90;99.90
51615;DHT22;37695;52.960;6.188;2023-03-16T01:15:37;3.80;99.90
51615;DHT22;37695;52.960;6.188;2023-03-16T01:18:02;3.80;99.90
51615;DHT22;37695;52.960;6.188;2023-03-16T01:20:29;3.90;99.90
51615;DHT22;37695;52.960;6.188;2023-03-16T01:22:54;3.80;99.90
51615;DHT22;37695;52.960;6.188;2023-03-16T01:25:20;3.80;99.90
51615;DHT22;37695;52.960;6.188;2023-03-16T01:27:46;3.80;99.90
51615;DHT22;37695;52.960;6.188;2023-03-16T01:30:12;3.80;99.90
51615;DHT22;37695;52.960;6.188;2023-03-16T01:32:38;3.70;99.90
51615;DHT22;37695;52.960;6.188;2023-03-16T01:35:05;3.70;99.90
51615;DHT22;37695;52.960;6.188;2023-03-16T01:37:31;3.70;99.90
51615;DHT22;37695;52.960;6.188;2023-03-16T01:39:56;3.70;99.90
51615;DHT22;37695;52.960;6.188;2023-03-16T01:42:22;3.70;99.90
51615;DHT22;37695;52.960;6.188;2023-03-16T01:44:57;3.70;99.90
51615;DHT22;37695;52.960;6.188;2023-03-16T01:47:26;3.70;99.90
51615;DHT22;37695;52.960;6.188;2023-03-16T01:49:54;3.80;99.90
51615;DHT22;37695;52.960;6.188;2023-03-16T01:52:24;3.70;99.90
51615;DHT22;37695;52.960;6.188;2023-03-16T01:55:07;3.70;99.90
51615;DHT22;37695;52.960;6.188;2023-03-16T01:57:38;3.80;99.90
51615;DHT22;37695;52.960;6.188;2023-03-16T02:00:13;3.80;99.90
51615;DHT22;37695;52.960;6.188;2023-03-16T02:02:47;3.80;99.90
51615;DHT22;37695;52.960;6.188;2023-03-16T02:05:20;3.90;99.90
51615;DHT22;37695;52.960;6.188;2023-03-16T02:07:50;3.90;99.90
51615;DHT22;37695;52.960;6.188;2023-03-16T02:10:18;3.90;99.90
51615;DHT22;37695;52.960;6.188;2023-03-16T02:12:45;4.00;99.90
51615;DHT22;37695;52.960;6.188;2023-03-16T02:15:12;4.00;99.90
51615;DHT22;37695;52.960;6.188;2023-03-16T02:17:38;4.00;99.90
51615;DHT22;37695;52.960;6.188;2023-03-16T02:20:31;4.10;99.90
51615;DHT22;37695;52.960;6.188;2023-03-16T02:22:59;4.00;99.90
51615;DHT22;37695;52.960;6.188;2023-03-16T02:25:46;4.10;99.90
51615;DHT22;37695;52.960;6.188;2023-03-16T02:30:52;4.10;99.90
51615;DHT22;37695;52.960;6.188;2023-03-16T02:33:18;4.20;99.90
51615;DHT22;37695;52.960;6.188;2023-03-16T02:35:45;4.10;99.90
51615;DHT22;37695;52.960;6.188;2023-03-16T02:38:11;4.10;99.90
51615;DHT22;37695;52.960;6.188;2023-03-16T02:40:37;4.20;99.90
51615;DHT22;37695;52.960;6.188;2023-03-16T02:43:09;4.20;99.90
51615;DHT22;37695;52.960;6.188;2023-03-16T02:45:45;4.30;99.90
51615;DHT22;37695;52.960;6.188;2023-03-16T02:48:22;4.30;99.90
51615;DHT22;37695;52.960;6.188;2023-03-16T02:50:52;4.30;99.90
51615;DHT22;37695;52.960;6.188;2023-03-16T02:53:18;4.30;99.90
51615;DHT22;37695;52.960;6.188;2023-03-16T02:55:44;4.30;99.90
51615;DHT22;37695;52.960;6.188;2023-03-16T02:58:11;4.40;99.90
51615;DHT22;37695;52.960;6.188;2023-03-16T03:00:37;4.40;99.90
51615;DHT22;37695;52.960;6.188;2023-03-16T03:03:04;4.40;99.90
51615;DHT22;37695;52.960;6.188;2023-03-16T03:05:30;4.40;99.90
51615;DHT22;37695;52.960;6.188;2023-03-16T03:07:56;4.40;99.90
51615;DHT22;37695;52.960;6.188;2023-03-16T03:10:22;4.50;99.90
51615;DHT22;37695;52.960;6.188;2023-03-16T03:12:47;4.50;99.90
51615;DHT22;37695;52.960;6.188;2023-03-16T03:15:14;4.50;99.90
51615;DHT22;37695;52.960;6.188;2023-03-16T03:17:41;4.50;99.90
51615;DHT22;37695;52.960;6.188;2023-03-16T03:20:08;4.50;99.90
51615;DHT22;37695;52.960;6.188;2023-03-16T03:22:43;4.50;99.90
51615;DHT22;37695;52.960;6.188;2023-03-16T03:25:10;4.50;99.90
51615;DHT22;37695;52.960;6.188;2023-03-16T03:27:36;4.50;99.90
51615;DHT22;37695;52.960;6.188;2023-03-16T03:30:03;4.50;99.90
51615;DHT22;37695;52.960;6.188;2023-03-16T03:32:29;4.50;99.90
51615;DHT22;37695;52.960;6.188;2023-03-16T03:34:54;4.50;99.90
51615;DHT22;37695;52.960;6.188;2023-03-16T03:37:20;4.50;99.90
51615;DHT22;37695;52.960;6.188;2023-03-16T03:39:45;4.60;99.90
51615;DHT22;37695;52.960;6.188;2023-03-16T03:42:12;4.60;99.90
51615;DHT22;37695;52.960;6.188;2023-03-16T03:44:38;4.60;99.90
51615;DHT22;37695;52.960;6.188;2023-03-16T03:47:04;4.60;99.90
51615;DHT22;37695;52.960;6.188;2023-03-16T03:49:30;4.60;99.90
51615;DHT22;37695;52.960;6.188;2023-03-16T03:51:56;4.60;99.90
51615;DHT22;37695;52.960;6.188;2023-03-16T03:54:24;4.60;99.90
51615;DHT22;37695;52.960;6.188;2023-03-16T03:56:50;4.60;99.90
51615;DHT22;37695;52.960;6.188;2023-03-16T03:59:16;4.60;99.90
51615;DHT22;37695;52.960;6.188;2023-03-16T04:01:42;4.60;99.90
51615;DHT22;37695;52.960;6.188;2023-03-16T04:04:07;4.60;99.90
51615;DHT22;37695;52.960;6.188;2023-03-16T04:06:33;4.60;99.90
51615;DHT22;37695;52.960;6.188;2023-03-16T04:08:58;4.60;99.90
51615;DHT22;37695;52.960;6.188;2023-03-16T04:11:24;4.60;99.90
51615;DHT22;37695;52.960;6.188;2023-03-16T04:13:50;4.60;99.90
51615;DHT22;37695;52.960;6.188;2023-03-16T04:16:18;4.60;99.90
51615;DHT22;37695;52.960;6.188;2023-03-16T04:18:43;4.60;99.90
51615;DHT22;37695;52.960;6.188;2023-03-16T04:21:14;4.60;99.90
51615;DHT22;37695;52.960;6.188;2023-03-16T04:23:40;4.60;99.90
51615;DHT22;37695;52.960;6.188;2023-03-16T04:26:07;4.60;99.90
51615;DHT22;37695;52.960;6.188;2023-03-16T04:28:32;4.60;99.90
51615;DHT22;37695;52.960;6.188;2023-03-16T04:31:05;4.60;99.90
51615;DHT22;37695;52.960;6.188;2023-03-16T04:33:32;4.60;99.90
51615;DHT22;37695;52.960;6.188;2023-03-16T04:35:59;4.50;99.90
51615;DHT22;37695;52.960;6.188;2023-03-16T04:38:24;4.50;99.90
51615;DHT22;37695;52.960;6.188;2023-03-16T04:40:50;4.60;99.90
51615;DHT22;37695;52.960;6.188;2023-03-16T04:43:17;4.60;99.90
51615;DHT22;37695;52.960;6.188;2023-03-16T04:45:42;4.60;99.90
51615;DHT22;37695;52.960;6.188;2023-03-16T04:48:08;4.60;99.90
51615;DHT22;37695;52.960;6.188;2023-03-16T04:50:34;4.60;99.90
51615;DHT22;37695;52.960;6.188;2023-03-16T04:53:00;4.60;99.90
51615;DHT22;37695;52.960;6.188;2023-03-16T04:55:26;4.50;99.90
51615;DHT22;37695;52.960;6.188;2023-03-16T04:57:51;4.60;99.90
51615;DHT22;37695;52.960;6.188;2023-03-16T05:00:17;4.60;99.90
51615;DHT22;37695;52.960;6.188;2023-03-16T05:02:45;4.60;99.90
51615;DHT22;37695;52.960;6.188;2023-03-16T05:05:11;4.60;99.90
51615;DHT22;37695;52.960;6.188;2023-03-16T05:07:38;4.60;99.90
51615;DHT22;37695;52.960;6.188;2023-03-16T05:10:12;4.60;99.90
51615;DHT22;37695;52.960;6.188;2023-03-16T05:12:38;4.50;99.90
51615;DHT22;37695;52.960;6.188;2023-03-16T05:15:04;4.50;99.90
51615;DHT22;37695;52.960;6.188;2023-03-16T05:17:31;4.50;99.90
51615;DHT22;37695;52.960;6.188;2023-03-16T05:19:57;4.60;99.90
51615;DHT22;37695;52.960;6.188;2023-03-16T05:22:22;4.60;99.90
51615;DHT22;37695;52.960;6.188;2023-03-16T05:24:48;4.60;99.90
51615;DHT22;37695;52.960;6.188;2023-03-16T05:27:13;4.60;99.90
51615;DHT22;37695;52.960;6.188;2023-03-16T05:29:39;4.50;99.90
51615;DHT22;37695;52.960;6.188;2023-03-16T05:32:05;4.50;99.90
51615;DHT22;37695;52.960;6.188;2023-03-16T05:34:31;4.50;99.90
51615;DHT22;37695;52.960;6.188;2023-03-16T05:36:57;4.50;99.90
51615;DHT22;37695;52.960;6.188;2023-03-16T05:39:23;4.60;99.90
51615;DHT22;37695;52.960;6.188;2023-03-16T05:41:49;4.50;99.90
51615;DHT22;37695;52.960;6.188;2023-03-16T05:44:14;4.50;99.90
51615;DHT22;37695;52.960;6.188;2023-03-16T05:46:40;4.50;99.90
51615;DHT22;37695;52.960;6.188;2023-03-16T05:49:05;4.50;99.90
51615;DHT22;37695;52.960;6.188;2023-03-16T05:51:31;4.50;99.90
51615;DHT22;37695;52.960;6.188;2023-03-16T05:53:56;4.40;99.90
51615;DHT22;37695;52.960;6.188;2023-03-16T05:56:23;4.40;99.90
51615;DHT22;37695;52.960;6.188;2023-03-16T05:58:50;4.40;99.90
51615;DHT22;37695;52.960;6.188;2023-03-16T06:01:16;4.40;99.90
51615;DHT22;37695;52.960;6.188;2023-03-16T06:03:42;4.40;99.90
51615;DHT22;37695;52.960;6.188;2023-03-16T06:06:07;4.40;99.90
51615;DHT22;37695;52.960;6.188;2023-03-16T06:08:33;4.50;99.90
51615;DHT22;37695;52.960;6.188;2023-03-16T06:10:58;4.40;99.90
51615;DHT22;37695;52.960;6.188;2023-03-16T06:13:24;4.50;99.90
51615;DHT22;37695;52.960;6.188;2023-03-16T06:15:49;4.50;99.90
51615;DHT22;37695;52.960;6.188;2023-03-16T06:18:15;4.50;99.90
51615;DHT22;37695;52.960;6.188;2023-03-16T06:20:40;4.50;99.90
51615;DHT22;37695;52.960;6.188;2023-03-16T06:23:06;4.60;99.90
51615;DHT22;37695;52.960;6.188;2023-03-16T06:25:31;4.60;99.90
51615;DHT22;37695;52.960;6.188;2023-03-16T06:27:57;4.60;99.90
51615;DHT22;37695;52.960;6.188;2023-03-16T06:30:22;4.70;99.90
51615;DHT22;37695;52.960;6.188;2023-03-16T06:32:48;4.70;99.90
51615;DHT22;37695;52.960;6.188;2023-03-16T06:35:13;4.70;99.90
51615;DHT22;37695;52.960;6.188;2023-03-16T06:37:39;4.70;99.90
51615;DHT22;37695;52.960;6.188;2023-03-16T06:40:06;4.70;99.90
51615;DHT22;37695;52.960;6.188;2023-03-16T06:42:31;4.80;99.90
51615;DHT22;37695;52.960;6.188;2023-03-16T06:44:57;4.80;99.90
51615;DHT22;37695;52.960;6.188;2023-03-16T06:47:23;4.80;99.90
51615;DHT22;37695;52.960;6.188;2023-03-16T06:49:49;4.80;99.90
51615;DHT22;37695;52.960;6.188;2023-03-16T06:52:16;4.80;99.90
51615;DHT22;37695;52.960;6.188;2023-03-16T06:54:41;4.80;99.90
51615;DHT22;37695;52.960;6.188;2023-03-16T06:57:07;4.80;99.90
51615;DHT22;37695;52.960;6.188;2023-03-16T06:59:33;4.80;99.90
51615;DHT22;37695;52.960;6.188;2023-03-16T07:01:59;4.90;99.90
51615;DHT22;37695;52.960;6.188;2023-03-16T07:04:25;4.90;99.90
51615;DHT22;37695;52.960;6.188;2023-03-16T07:06:51;4.90;99.90
51615;DHT22;37695;52.960;6.188;2023-03-16T07:09:16;5.00;99.90
51615;DHT22;37695;52.960;6.188;2023-03-16T07:11:42;5.00;99.90
51615;DHT22;37695;52.960;6.188;2023-03-16T07:14:07;5.10;99.90
51615;DHT22;37695;52.960;6.188;2023-03-16T07:16:33;5.10;99.90
51615;DHT22;37695;52.960;6.188;2023-03-16T07:18:58;5.10;99.90
51615;DHT22;37695;52.960;6.188;2023-03-16T07:21:24;5.10;99.90
51615;DHT22;37695;52.960;6.188;2023-03-16T07:23:49;5.20;99.90
51615;DHT22;37695;52.960;6.188;2023-03-16T07:26:16;5.20;99.90
51615;DHT22;37695;52.960;6.188;2023-03-16T07:28:41;5.20;99.90
51615;DHT22;37695;52.960;6.188;2023-03-16T07:31:07;5.20;99.90
51615;DHT22;37695;52.960;6.188;2023-03-16T07:33:34;5.20;99.90
51615;DHT22;37695;52.960;6.188;2023-03-16T07:36:00;5.30;99.90
51615;DHT22;37695;52.960;6.188;2023-03-16T07:38:29;5.30;99.90
51615;DHT22;37695;52.960;6.188;2023-03-16T07:40:57;5.30;99.90
51615;DHT22;37695;52.960;6.188;2023-03-16T07:43:23;5.40;99.90
51615;DHT22;37695;52.960;6.188;2023-03-16T07:45:49;5.40;99.90
51615;DHT22;37695;52.960;6.188;2023-03-16T07:48:16;5.40;99.90
51615;DHT22;37695;52.960;6.188;2023-03-16T07:50:42;5.50;99.90
51615;DHT22;37695;52.960;6.188;2023-03-16T07:53:07;5.50;99.90
51615;DHT22;37695;52.960;6.188;2023-03-16T07:55:33;5.50;99.90
51615;DHT22;37695;52.960;6.188;2023-03-16T07:58:01;5.60;99.90
51615;DHT22;37695;52.960;6.188;2023-03-16T08:00:29;5.70;99.90
51615;DHT22;37695;52.960;6.188;2023-03-16T08:02:55;5.70;99.90
51615;DHT22;37695;52.960;6.188;2023-03-16T08:05:22;5.70;99.90
51615;DHT22;37695;52.960;6.188;2023-03-16T08:07:47;5.70;99.90
51615;DHT22;37695;52.960;6.188;2023-03-16T08:10:13;5.70;99.90
51615;DHT22;37695;52.960;6.188;2023-03-16T08:12:39;5.70;99.90
51615;DHT22;37695;52.960;6.188;2023-03-16T08:15:06;5.70;99.90
51615;DHT22;37695;52.960;6.188;2023-03-16T08:17:32;5.60;99.90
51615;DHT22;37695;52.960;6.188;2023-03-16T08:19:58;5.60;99.90
51615;DHT22;37695;52.960;6.188;2023-03-16T08:22:24;5.60;99.90
51615;DHT22;37695;52.960;6.188;2023-03-16T08:24:50;5.60;99.90
51615;DHT22;37695;52.960;6.188;2023-03-16T08:27:16;5.60;99.90
51615;DHT22;37695;52.960;6.188;2023-03-16T08:29:44;5.60;99.90
51615;DHT22;37695;52.960;6.188;2023-03-16T08:32:09;5.60;99.90
51615;DHT22;37695;52.960;6.188;2023-03-16T08:34:35;5.60;99.90
51615;DHT22;37695;52.960;6.188;2023-03-16T08:37:00;5.60;99.90
51615;DHT22;37695;52.960;6.188;2023-03-16T08:39:26;5.70;99.90
51615;DHT22;37695;52.960;6.188;2023-03-16T08:41:52;5.70;99.90
51615;DHT22;37695;52.960;6.188;2023-03-16T08:44:18;5.70;99.90
51615;DHT22;37695;52.960;6.188;2023-03-16T08:46:45;5.70;99.90
51615;DHT22;37695;52.960;6.188;2023-03-16T08:49:11;5.70;99.90
51615;DHT22;37695;52.960;6.188;2023-03-16T08:51:38;5.70;99.90
51615;DHT22;37695;52.960;6.188;2023-03-16T08:54:03;5.90;99.90
51615;DHT22;37695;52.960;6.188;2023-03-16T08:56:29;5.70;99.90
51615;DHT22;37695;52.960;6.188;2023-03-16T08:58:55;5.70;99.90
51615;DHT22;37695;52.960;6.188;2023-03-16T09:01:22;5.70;99.90
51615;DHT22;37695;52.960;6.188;2023-03-16T09:03:49;5.70;99.90
51615;DHT22;37695;52.960;6.188;2023-03-16T09:06:16;5.80;99.90
51615;DHT22;37695;52.960;6.188;2023-03-16T09:08:42;5.80;99.90
51615;DHT22;37695;52.960;6.188;2023-03-16T09:11:14;5.80;99.90
51615;DHT22;37695;52.960;6.188;2023-03-16T09:13:41;5.90;99.90
51615;DHT22;37695;52.960;6.188;2023-03-16T09:16:08;5.90;99.90
51615;DHT22;37695;52.960;6.188;2023-03-16T09:18:34;6.00;99.90
51615;DHT22;37695;52.960;6.188;2023-03-16T09:21:02;6.10;99.90
51615;DHT22;37695;52.960;6.188;2023-03-16T09:23:29;6.10;99.90
51615;DHT22;37695;52.960;6.188;2023-03-16T09:26:02;6.20;99.90
51615;DHT22;37695;52.960;6.188;2023-03-16T09:28:30;6.20;99.90
51615;DHT22;37695;52.960;6.188;2023-03-16T09:30:56;6.20;99.90
51615;DHT22;37695;52.960;6.188;2023-03-16T09:33:23;6.20;99.90
51615;DHT22;37695;52.960;6.188;2023-03-16T09:35:50;6.20;99.90
51615;DHT22;37695;52.960;6.188;2023-03-16T09:38:17;6.30;99.90
51615;DHT22;37695;52.960;6.188;2023-03-16T09:40:43;6.30;99.90
51615;DHT22;37695;52.960;6.188;2023-03-16T09:46:23;6.30;99.90
51615;DHT22;37695;52.960;6.188;2023-03-16T09:48:49;6.20;99.90
51615;DHT22;37695;52.960;6.188;2023-03-16T09:51:33;6.30;99.90
51615;DHT22;37695;52.960;6.188;2023-03-16T09:54:01;6.30;99.90
51615;DHT22;37695;52.960;6.188;2023-03-16T09:56:38;6.30;99.90
51615;DHT22;37695;52.960;6.188;2023-03-16T09:59:12;6.30;99.90
51615;DHT22;37695;52.960;6.188;2023-03-16T10:04:37;6.40;99.90
51615;DHT22;37695;52.960;6.188;2023-03-16T10:07:13;6.40;99.90
51615;DHT22;37695;52.960;6.188;2023-03-16T10:10:01;6.50;99.90
51615;DHT22;37695;52.960;6.188;2023-03-16T10:12:35;6.60;99.90
51615;DHT22;37695;52.960;6.188;2023-03-16T10:15:28;6.60;99.90
51615;DHT22;37695;52.960;6.188;2023-03-16T10:18:09;6.60;99.90
51615;DHT22;37695;52.960;6.188;2023-03-16T10:20:36;6.60;99.90
51615;DHT22;37695;52.960;6.188;2023-03-16T10:23:15;6.60;99.90
51615;DHT22;37695;52.960;6.188;2023-03-16T10:25:50;6.60;99.90
51615;DHT22;37695;52.960;6.188;2023-03-16T10:28:19;6.70;99.90
51615;DHT22;37695;52.960;6.188;2023-03-16T10:30:47;6.70;99.90
51615;DHT22;37695;52.960;6.188;2023-03-16T10:38:41;6.90;99.90
51615;DHT22;37695;52.960;6.188;2023-03-16T10:43:49;7.00;99.90
51615;DHT22;37695;52.960;6.188;2023-03-16T10:46:14;7.10;99.90
51615;DHT22;37695;52.960;6.188;2023-03-16T10:48:41;7.10;99.90
51615;DHT22;37695;52.960;6.188;2023-03-16T10:51:10;7.10;99.90
51615;DHT22;37695;52.960;6.188;2023-03-16T10:53:41;7.40;99.90
51615;DHT22;37695;52.960;6.188;2023-03-16T10:56:18;7.30;99.90
51615;DHT22;37695;52.960;6.188;2023-03-16T10:58:44;7.30;99.90
51615;DHT22;37695;52.960;6.188;2023-03-16T11:01:18;7.40;99.90
51615;DHT22;37695;52.960;6.188;2023-03-16T11:03:49;7.50;99.90
51615;DHT22;37695;52.960;6.188;2023-03-16T11:06:23;7.50;99.90
51615;DHT22;37695;52.960;6.188;2023-03-16T11:08:51;7.50;99.90
51615;DHT22;37695;52.960;6.188;2023-03-16T11:11:26;7.70;99.90
51615;DHT22;37695;52.960;6.188;2023-03-16T11:13:56;7.70;99.90
51615;DHT22;37695;52.960;6.188;2023-03-16T11:16:38;7.80;99.90
51615;DHT22;37695;52.960;6.188;2023-03-16T11:19:19;7.90;99.90
51615;DHT22;37695;52.960;6.188;2023-03-16T11:21:49;8.00;99.90
51615;DHT22;37695;52.960;6.188;2023-03-16T11:24:29;8.10;99.90
51615;DHT22;37695;52.960;6.188;2023-03-16T11:26:58;8.30;99.90
51615;DHT22;37695;52.960;6.188;2023-03-16T11:29:40;8.50;99.90
51615;DHT22;37695;52.960;6.188;2023-03-16T11:32:19;8.60;99.90
51615;DHT22;37695;52.960;6.188;2023-03-16T11:34:46;8.70;99.90
51615;DHT22;37695;52.960;6.188;2023-03-16T11:37:24;8.80;99.90
51615;DHT22;37695;52.960;6.188;2023-03-16T11:45:41;9.20;99.90
51615;DHT22;37695;52.960;6.188;2023-03-16T11:48:30;9.40;99.90
51615;DHT22;37695;52.960;6.188;2023-03-16T11:53:55;9.70;99.90
51615;DHT22;37695;52.960;6.188;2023-03-16T11:56:35;9.70;99.90
51615;DHT22;37695;52.960;6.188;2023-03-16T12:02:10;9.90;99.90
51615;DHT22;37695;52.960;6.188;2023-03-16T12:08:01;9.90;99.90
51615;DHT22;37695;52.960;6.188;2023-03-16T12:10:33;10.00;99.90
51615;DHT22;37695;52.960;6.188;2023-03-16T12:18:43;10.00;99.90
51615;DHT22;37695;52.960;6.188;2023-03-16T12:21:20;10.10;99.90
51615;DHT22;37695;52.960;6.188;2023-03-16T12:23:51;10.10;99.90
51615;DHT22;37695;52.960;6.188;2023-03-16T12:26:19;10.10;99.90
51615;DHT22;37695;52.960;6.188;2023-03-16T12:28:47;10.10;99.90
51615;DHT22;37695;52.960;6.188;2023-03-16T12:31:17;10.00;99.90
51615;DHT22;37695;52.960;6.188;2023-03-16T12:34:10;10.00;99.90
51615;DHT22;37695;52.960;6.188;2023-03-16T12:42:32;9.80;99.90
51615;DHT22;37695;52.960;6.188;2023-03-16T12:45:22;9.80;99.90
51615;DHT22;37695;52.960;6.188;2023-03-16T12:48:30;9.80;99.90
51615;DHT22;37695;52.960;6.188;2023-03-16T12:50:57;9.70;99.90
51615;DHT22;37695;52.960;6.188;2023-03-16T12:53:25;9.70;99.90
51615;DHT22;37695;52.960;6.188;2023-03-16T12:55:51;9.70;99.90
51615;DHT22;37695;52.960;6.188;2023-03-16T12:58:17;9.70;99.90
51615;DHT22;37695;52.960;6.188;2023-03-16T13:00:43;9.80;99.90
51615;DHT22;37695;52.960;6.188;2023-03-16T13:03:21;9.80;99.90
51615;DHT22;37695;52.960;6.188;2023-03-16T13:06:05;9.80;99.90
51615;DHT22;37695;52.960;6.188;2023-03-16T13:08:42;9.80;99.90
51615;DHT22;37695;52.960;6.188;2023-03-16T13:11:10;9.90;99.90
51615;DHT22;37695;52.960;6.188;2023-03-16T13:16:29;10.00;99.90
51615;DHT22;37695;52.960;6.188;2023-03-16T13:18:55;10.10;99.90
51615;DHT22;37695;52.960;6.188;2023-03-16T13:21:36;10.20;99.90
51615;DHT22;37695;52.960;6.188;2023-03-16T13:26:47;10.50;99.90
51615;DHT22;37695;52.960;6.188;2023-03-16T13:31:45;10.70;99.90
51615;DHT22;37695;52.960;6.188;2023-03-16T13:34:14;10.70;99.90
51615;DHT22;37695;52.960;6.188;2023-03-16T13:36:44;10.90;99.90
51615;DHT22;37695;52.960;6.188;2023-03-16T13:39:20;11.00;99.90
51615;DHT22;37695;52.960;6.188;2023-03-16T13:44:32;11.30;99.90
51615;DHT22;37695;52.960;6.188;2023-03-16T13:47:04;11.30;99.90
51615;DHT22;37695;52.960;6.188;2023-03-16T13:49:30;11.30;99.90
51615;DHT22;37695;52.960;6.188;2023-03-16T13:51:55;11.20;99.90
51615;DHT22;37695;52.960;6.188;2023-03-16T13:54:28;11.20;99.90
51615;DHT22;37695;52.960;6.188;2023-03-16T13:56:57;11.20;99.90
51615;DHT22;37695;52.960;6.188;2023-03-16T13:59:23;11.20;99.90
51615;DHT22;37695;52.960;6.188;2023-03-16T14:01:57;11.20;99.90
51615;DHT22;37695;52.960;6.188;2023-03-16T14:04:26;11.10;99.90
51615;DHT22;37695;52.960;6.188;2023-03-16T14:06:58;11.00;99.90
51615;DHT22;37695;52.960;6.188;2023-03-16T14:09:28;11.00;99.90
51615;DHT22;37695;52.960;6.188;2023-03-16T14:11:55;10.90;99.90
51615;DHT22;37695;52.960;6.188;2023-03-16T14:14:29;10.80;99.90
51615;DHT22;37695;52.960;6.188;2023-03-16T14:17:03;10.70;99.90
51615;DHT22;37695;52.960;6.188;2023-03-16T14:19:39;10.60;99.90
51615;DHT22;37695;52.960;6.188;2023-03-16T14:22:33;10.60;99.90
51615;DHT22;37695;52.960;6.188;2023-03-16T14:25:01;10.70;99.90
51615;DHT22;37695;52.960;6.188;2023-03-16T14:27:43;10.80;99.90
51615;DHT22;37695;52.960;6.188;2023-03-16T14:30:20;10.80;99.90
51615;DHT22;37695;52.960;6.188;2023-03-16T14:35:31;11.00;99.90
51615;DHT22;37695;52.960;6.188;2023-03-16T14:38:06;11.00;99.90
51615;DHT22;37695;52.960;6.188;2023-03-16T14:40:52;11.10;99.90
51615;DHT22;37695;52.960;6.188;2023-03-16T14:43:23;11.30;99.90
51615;DHT22;37695;52.960;6.188;2023-03-16T14:45:49;11.40;99.90
51615;DHT22;37695;52.960;6.188;2023-03-16T14:48:19;11.40;99.90
51615;DHT22;37695;52.960;6.188;2023-03-16T14:50:52;11.50;99.90
51615;DHT22;37695;52.960;6.188;2023-03-16T14:53:19;11.50;99.90
51615;DHT22;37695;52.960;6.188;2023-03-16T14:55:45;11.50;99.90
51615;DHT22;37695;52.960;6.188;2023-03-16T14:58:12;11.50;99.90
51615;DHT22;37695;52.960;6.188;2023-03-16T15:00:37;11.50;99.90
51615;DHT22;37695;52.960;6.188;2023-03-16T15:03:10;11.50;99.90
51615;DHT22;37695;52.960;6.188;2023-03-16T15:05:39;11.50;99.90
51615;DHT22;37695;52.960;6.188;2023-03-16T15:08:11;11.50;99.90
51615;DHT22;37695;52.960;6.188;2023-03-16T15:10:39;11.60;99.90
51615;DHT22;37695;52.960;6.188;2023-03-16T15:13:15;11.50;99.90
51615;DHT22;37695;52.960;6.188;2023-03-16T15:16:02;11.50;99.90
51615;DHT22;37695;52.960;6.188;2023-03-16T15:18:29;11.50;99.90
51615;DHT22;37695;52.960;6.188;2023-03-16T15:20:54;11.50;99.90
51615;DHT22;37695;52.960;6.188;2023-03-16T15:23:21;11.50;99.90
51615;DHT22;37695;52.960;6.188;2023-03-16T15:25:47;11.50;99.90
51615;DHT22;37695;52.960;6.188;2023-03-16T15:28:21;11.50;99.90
51615;DHT22;37695;52.960;6.188;2023-03-16T15:30:49;11.50;99.90
51615;DHT22;37695;52.960;6.188;2023-03-16T15:33:16;11.50;99.90
51615;DHT22;37695;52.960;6.188;2023-03-16T15:35:42;11.40;99.90
51615;DHT22;37695;52.960;6.188;2023-03-16T15:38:15;11.40;99.90
51615;DHT22;37695;52.960;6.188;2023-03-16T15:40:42;11.30;99.90
51615;DHT22;37695;52.960;6.188;2023-03-16T15:43:13;11.30;99.90
51615;DHT22;37695;52.960;6.188;2023-03-16T15:45:38;11.30;99.90
51615;DHT22;37695;52.960;6.188;2023-03-16T15:48:04;11.30;99.90
51615;DHT22;37695;52.960;6.188;2023-03-16T15:50:30;11.30;99.90
51615;DHT22;37695;52.960;6.188;2023-03-16T15:53:23;11.30;99.90
51615;DHT22;37695;52.960;6.188;2023-03-16T15:55:52;11.30;99.90
51615;DHT22;37695;52.960;6.188;2023-03-16T15:58:23;11.30;99.90
51615;DHT22;37695;52.960;6.188;2023-03-16T16:00:51;11.30;99.90
51615;DHT22;37695;52.960;6.188;2023-03-16T16:03:20;11.20;99.90
51615;DHT22;37695;52.960;6.188;2023-03-16T16:05:46;11.20;99.90
51615;DHT22;37695;52.960;6.188;2023-03-16T16:08:11;11.20;99.90
51615;DHT22;37695;52.960;6.188;2023-03-16T16:10:39;11.20;99.90
51615;DHT22;37695;52.960;6.188;2023-03-16T16:13:04;11.20;99.90
51615;DHT22;37695;52.960;6.188;2023-03-16T16:15:32;11.20;99.90
51615;DHT22;37695;52.960;6.188;2023-03-16T16:18:03;11.20;99.90
51615;DHT22;37695;52.960;6.188;2023-03-16T16:20:37;11.20;99.90
51615;DHT22;37695;52.960;6.188;2023-03-16T16:23:03;11.20;99.90
51615;DHT22;37695;52.960;6.188;2023-03-16T16:25:37;11.20;99.90
51615;DHT22;37695;52.960;6.188;2023-03-16T16:28:14;11.20;99.90
51615;DHT22;37695;52.960;6.188;2023-03-16T16:30:40;11.10;99.90
51615;DHT22;37695;52.960;6.188;2023-03-16T16:33:26;11.10;99.90
51615;DHT22;37695;52.960;6.188;2023-03-16T16:35:54;11.10;99.90
51615;DHT22;37695;52.960;6.188;2023-03-16T16:38:20;11.10;99.90
51615;DHT22;37695;52.960;6.188;2023-03-16T16:40:47;11.10;99.90
51615;DHT22;37695;52.960;6.188;2023-03-16T16:43:40;11.00;99.90
51615;DHT22;37695;52.960;6.188;2023-03-16T16:46:15;10.90;99.90
51615;DHT22;37695;52.960;6.188;2023-03-16T16:48:44;10.90;99.90
51615;DHT22;37695;52.960;6.188;2023-03-16T16:51:21;10.90;99.90